createdAt,value
2022-12-13T00:02:00.925Z,30.97
2022-12-13T00:04:29.473Z,32.57
2022-12-13T00:06:57.983Z,31.60
2022-12-13T00:09:26.384Z,32.17
2022-12-13T00:11:54.918Z,30.43
2022-12-13T00:14:24.458Z,32.10
2022-12-13T00:16:52.895Z,31.97
2022-12-13T00:19:21.403Z,32.73
2022-12-13T00:21:49.850Z,31.57
2022-12-13T00:24:18.242Z,32.67
2022-12-13T00:26:46.779Z,32.50
2022-12-13T00:29:15.078Z,31.30
2022-12-13T00:31:59.315Z,32.47
2022-12-13T00:34:28.827Z,32.63
2022-12-13T00:36:59.253Z,32.37
2022-12-13T00:39:27.774Z,32.10
2022-12-13T00:41:56.110Z,32.23
2022-12-13T00:44:24.822Z,32.30
2022-12-13T00:46:54.748Z,32.90
2022-12-13T00:49:23.134Z,32.07
2022-12-13T00:51:51.769Z,33.10
2022-12-13T00:54:20.134Z,32.10
2022-12-13T00:56:49.071Z,33.80
2022-12-13T00:59:17.404Z,32.50
2022-12-13T01:01:46.396Z,33.13
2022-12-13T01:04:16.471Z,33.87
2022-12-13T01:06:46.599Z,35.03
2022-12-13T01:09:18.423Z,33.10
2022-12-13T01:11:47.794Z,32.13
2022-12-13T01:14:16.582Z,33.47
2022-12-13T01:16:44.887Z,32.70
2022-12-13T01:19:13.300Z,32.60
2022-12-13T01:21:42.769Z,32.40
2022-12-13T01:24:11.462Z,31.87
2022-12-13T01:26:40.030Z,33.13
2022-12-13T01:29:09.026Z,33.00
2022-12-13T01:31:41.430Z,32.60
2022-12-13T01:34:11.273Z,32.83
2022-12-13T01:36:40.378Z,32.33
2022-12-13T01:39:14.796Z,33.07
2022-12-13T01:41:44.795Z,33.13
2022-12-13T01:44:46.251Z,32.30
2022-12-13T01:47:17.541Z,32.43
2022-12-13T01:49:46.121Z,30.93
2022-12-13T01:52:16.205Z,32.13
2022-12-13T01:54:49.673Z,31.83
2022-12-13T01:57:20.965Z,32.23
2022-12-13T01:59:50.873Z,31.40
2022-12-13T02:02:19.419Z,32.47
2022-12-13T02:04:55.891Z,31.67
2022-12-13T02:07:29.095Z,30.27
2022-12-13T02:10:02.276Z,31.43
2022-12-13T02:12:33.436Z,30.53
2022-12-13T02:15:02.767Z,31.77
2022-12-13T02:17:43.843Z,31.83
2022-12-13T02:20:42.688Z,30.80
2022-12-13T02:23:36.220Z,32.70
2022-12-13T02:26:44.578Z,33.00
2022-12-13T02:29:41.471Z,31.70
2022-12-13T02:32:20.240Z,32.10
2022-12-13T02:34:53.075Z,31.10
2022-12-13T02:37:26.738Z,29.90
2022-12-13T02:40:00.092Z,29.53
2022-12-13T02:42:33.865Z,31.30
2022-12-13T02:45:07.404Z,31.00
2022-12-13T02:47:39.156Z,31.67
2022-12-13T02:50:09.225Z,30.43
2022-12-13T02:52:39.207Z,31.33
2022-12-13T02:55:08.712Z,31.07
2022-12-13T02:57:39.076Z,32.53
2022-12-13T03:00:10.330Z,31.63
2022-12-13T03:02:54.062Z,30.97
2022-12-13T03:05:49.197Z,30.87
2022-12-13T03:08:24.912Z,31.47
2022-12-13T03:11:01.809Z,29.83
2022-12-13T03:13:38.263Z,32.00
2022-12-13T03:16:25.432Z,32.90
2022-12-13T03:18:59.074Z,32.33
2022-12-13T03:21:27.772Z,31.00
2022-12-13T03:23:56.336Z,31.30
2022-12-13T03:26:27.565Z,31.57
2022-12-13T03:28:55.947Z,33.17
2022-12-13T03:31:24.717Z,32.50
2022-12-13T03:33:54.270Z,32.03
2022-12-13T03:36:23.042Z,33.17
2022-12-13T03:38:54.322Z,31.70
2022-12-13T03:41:31.312Z,32.63
2022-12-13T03:44:00.092Z,33.73
2022-12-13T03:46:28.508Z,33.83
2022-12-13T03:48:58.234Z,33.70
2022-12-13T03:51:26.911Z,32.93
2022-12-13T03:53:55.182Z,32.80
2022-12-13T03:56:23.607Z,31.87
2022-12-13T03:58:51.974Z,32.20
2022-12-13T04:01:20.199Z,32.77
2022-12-13T04:03:49.081Z,32.83
2022-12-13T04:06:22.838Z,32.87
2022-12-13T04:08:52.256Z,32.97
2022-12-13T04:11:42.830Z,32.23
2022-12-13T04:14:12.084Z,33.00
2022-12-13T04:16:40.557Z,30.93
2022-12-13T04:19:08.902Z,32.13
2022-12-13T04:21:38.532Z,32.70
2022-12-13T04:24:07.309Z,31.83
2022-12-13T04:26:35.579Z,32.30
2022-12-13T04:29:03.944Z,32.10
2022-12-13T04:31:32.591Z,33.60
2022-12-13T04:34:01.010Z,32.40
2022-12-13T04:36:31.995Z,33.17
2022-12-13T04:39:03.131Z,33.93
2022-12-13T04:41:36.611Z,34.37
2022-12-13T04:44:06.223Z,33.93
2022-12-13T04:46:54.451Z,33.80
2022-12-13T04:49:29.554Z,34.03
2022-12-13T04:52:01.358Z,34.27
2022-12-13T04:54:36.430Z,36.63
2022-12-13T04:57:06.707Z,36.50
2022-12-13T04:59:35.107Z,37.13
2022-12-13T05:02:03.509Z,35.43
2022-12-13T05:04:33.114Z,34.80
2022-12-13T05:07:02.288Z,37.73
2022-12-13T05:09:32.180Z,34.87
2022-12-13T05:12:01.924Z,38.77
2022-12-13T05:14:30.924Z,41.07
2022-12-13T05:16:59.447Z,40.33
2022-12-13T05:19:30.992Z,41.67
2022-12-13T05:22:01.234Z,41.00
2022-12-13T05:24:33.001Z,41.27
2022-12-13T05:27:01.376Z,39.53
2022-12-13T05:29:49.606Z,40.40
2022-12-13T05:32:18.133Z,39.43
2022-12-13T05:34:46.503Z,38.53
2022-12-13T05:37:15.051Z,38.47
2022-12-13T05:39:44.702Z,39.00
2022-12-13T05:42:13.109Z,38.20
2022-12-13T05:44:41.481Z,36.10
2022-12-13T05:47:09.679Z,37.07
2022-12-13T05:49:39.617Z,38.73
2022-12-13T05:52:08.417Z,37.70
2022-12-13T05:54:36.915Z,38.23
2022-12-13T05:57:12.903Z,39.27
2022-12-13T05:59:41.237Z,37.27
2022-12-13T06:02:09.949Z,37.77
2022-12-13T06:04:38.385Z,38.30
2022-12-13T06:07:06.974Z,38.43
2022-12-13T06:09:40.248Z,38.93
2022-12-13T06:12:31.266Z,38.30
2022-12-13T06:15:01.165Z,37.60
2022-12-13T06:17:32.375Z,37.03
2022-12-13T06:20:00.935Z,35.87
2022-12-13T06:22:29.267Z,36.77
2022-12-13T06:24:57.851Z,35.17
2022-12-13T06:27:26.235Z,36.70
2022-12-13T06:29:56.813Z,36.37
2022-12-13T06:32:28.670Z,34.67
2022-12-13T06:34:57.098Z,35.20
2022-12-13T06:37:25.713Z,35.73
2022-12-13T06:39:54.076Z,34.83
2022-12-13T06:42:22.886Z,32.53
2022-12-13T06:44:55.838Z,35.60
2022-12-13T06:47:32.151Z,32.53
2022-12-13T06:50:05.383Z,34.03
2022-12-13T06:52:34.510Z,32.30
2022-12-13T06:55:02.842Z,30.70
2022-12-13T06:57:33.879Z,30.03
2022-12-13T07:00:03.395Z,29.47
2022-12-13T07:02:32.623Z,28.93
2022-12-13T07:05:02.455Z,28.73
2022-12-13T07:07:31.030Z,29.57
2022-12-13T07:09:59.478Z,28.17
2022-12-13T07:12:28.264Z,28.93
2022-12-13T07:14:56.415Z,29.10
2022-12-13T07:17:32.989Z,26.70
2022-12-13T07:20:07.955Z,26.80
2022-12-13T07:22:44.983Z,26.07
2022-12-13T07:25:27.503Z,25.37
2022-12-13T07:28:02.395Z,25.20
2022-12-13T07:30:31.330Z,26.10
2022-12-13T07:32:59.873Z,26.93
2022-12-13T07:35:29.392Z,25.10
2022-12-13T07:37:58.086Z,26.80
2022-12-13T07:40:26.519Z,26.47
2022-12-13T07:42:56.176Z,26.80
2022-12-13T07:45:24.998Z,26.13
2022-12-13T07:47:53.525Z,25.20
2022-12-13T07:50:25.036Z,28.88
2022-12-13T07:52:55.543Z,26.10
2022-12-13T07:55:33.460Z,27.47
2022-12-13T07:58:06.290Z,26.33
2022-12-13T08:00:34.875Z,28.63
2022-12-13T08:03:03.314Z,27.40
2022-12-13T08:05:38.652Z,28.50
2022-12-13T08:08:11.834Z,27.07
2022-12-13T08:10:40.671Z,29.50
2022-12-13T08:13:09.275Z,27.50
2022-12-13T08:15:37.786Z,27.07
2022-12-13T08:18:06.606Z,26.90
2022-12-13T08:20:35.099Z,26.13
2022-12-13T08:23:03.605Z,25.30
2022-12-13T08:25:33.220Z,25.00
2022-12-13T08:28:02.646Z,26.07
2022-12-13T08:30:32.500Z,26.97
2022-12-13T08:33:05.124Z,26.43
2022-12-13T08:35:35.176Z,27.83
2022-12-13T08:38:04.144Z,26.60
2022-12-13T08:40:34.932Z,27.47
2022-12-13T08:43:03.621Z,27.63
2022-12-13T08:45:34.290Z,27.77
2022-12-13T08:48:03.423Z,27.03
2022-12-13T08:50:32.252Z,26.30
2022-12-13T08:53:00.676Z,27.43
2022-12-13T08:55:32.124Z,26.97
2022-12-13T08:58:08.709Z,26.20
2022-12-13T09:00:37.306Z,24.77
2022-12-13T09:03:10.015Z,24.90
2022-12-13T09:05:38.992Z,27.87
2022-12-13T09:08:24.804Z,27.57
2022-12-13T09:11:00.848Z,20.07
2022-12-13T09:13:32.907Z,29.07
2022-12-13T09:16:14.094Z,30.30
2022-12-13T09:18:55.433Z,29.37
2022-12-13T09:21:31.321Z,27.43
2022-12-13T09:24:02.327Z,26.40
2022-12-13T09:26:38.484Z,27.07
2022-12-13T09:29:10.699Z,26.03
2022-12-13T09:31:40.621Z,25.23
2022-12-13T09:34:10.205Z,27.07
2022-12-13T09:36:38.767Z,25.20
2022-12-13T09:39:07.452Z,24.60
2022-12-13T09:41:40.580Z,26.17
2022-12-13T09:44:32.544Z,24.13
2022-12-13T09:47:14.929Z,24.27
2022-12-13T09:49:52.114Z,23.53
2022-12-13T09:52:25.023Z,24.33
2022-12-13T09:54:56.938Z,24.27
2022-12-13T09:57:32.146Z,25.83
2022-12-13T10:00:06.597Z,23.90
2022-12-13T10:02:42.831Z,22.55
2022-12-13T10:05:22.540Z,24.33
2022-12-13T10:07:53.654Z,21.83
2022-12-13T10:10:22.100Z,20.30
2022-12-13T10:12:57.206Z,23.80
2022-12-13T10:15:28.742Z,18.60
2022-12-13T10:17:57.627Z,20.47
2022-12-13T10:20:29.939Z,21.83
2022-12-13T10:25:51.646Z,22.83
2022-12-13T10:28:27.813Z,23.17
2022-12-13T10:30:59.236Z,22.60
2022-12-13T10:33:30.953Z,23.00
2022-12-13T10:36:19.966Z,22.40
2022-12-13T10:38:50.801Z,22.77
2022-12-13T10:41:37.040Z,21.67
2022-12-13T10:44:20.361Z,22.07
2022-12-13T10:47:01.437Z,20.93
2022-12-13T10:49:36.942Z,23.20
2022-12-13T10:52:05.756Z,24.80
2022-12-13T10:54:38.899Z,24.23
2022-12-13T10:57:17.870Z,22.77
2022-12-13T10:59:48.703Z,23.10
2022-12-13T11:02:36.462Z,23.33
2022-12-13T11:05:26.260Z,21.80
2022-12-13T11:07:55.309Z,19.07
2022-12-13T11:10:30.428Z,19.17
2022-12-13T11:13:03.845Z,19.50
2022-12-13T11:15:35.680Z,20.47
2022-12-13T11:18:09.664Z,20.87
2022-12-13T11:20:39.373Z,21.87
2022-12-13T11:23:16.433Z,20.10
2022-12-13T11:25:46.534Z,22.00
2022-12-13T11:28:43.727Z,23.92
2022-12-13T11:31:17.640Z,21.80
2022-12-13T11:33:59.447Z,22.43
2022-12-13T11:36:37.375Z,22.47
2022-12-13T11:39:17.700Z,16.27
2022-12-13T11:41:53.239Z,19.37
2022-12-13T11:44:27.497Z,19.90
2022-12-13T11:46:58.530Z,20.70
2022-12-13T11:49:38.671Z,19.97
2022-12-13T11:52:14.862Z,18.43
2022-12-13T11:54:50.609Z,20.53
2022-12-13T11:57:30.990Z,20.40
2022-12-13T12:00:13.085Z,18.80
2022-12-13T12:02:45.851Z,18.80
2022-12-13T12:05:28.301Z,19.43
2022-12-13T12:10:52.466Z,19.37
2022-12-13T12:13:24.379Z,19.97
2022-12-13T12:16:05.871Z,19.40
2022-12-13T12:18:34.592Z,19.97
2022-12-13T12:21:17.355Z,19.60
2022-12-13T12:23:58.190Z,19.20
2022-12-13T12:26:35.350Z,20.80
2022-12-13T12:29:29.812Z,19.53
2022-12-13T12:32:09.475Z,19.70
2022-12-13T12:34:41.814Z,20.60
2022-12-13T12:37:20.336Z,20.13
2022-12-13T12:40:08.847Z,19.50
2022-12-13T12:43:13.952Z,19.27
2022-12-13T12:45:57.337Z,18.13
2022-12-13T12:49:00.611Z,20.30
2022-12-13T12:51:38.603Z,19.87
2022-12-13T12:54:32.279Z,19.57
2022-12-13T12:57:07.844Z,19.60
2022-12-13T12:59:46.449Z,19.87
2022-12-13T13:02:22.463Z,19.40
2022-12-13T13:04:56.278Z,18.80
2022-12-13T13:07:32.047Z,17.20
2022-12-13T13:10:16.825Z,18.27
2022-12-13T13:13:11.367Z,19.00
2022-12-13T13:15:58.066Z,18.10
2022-12-13T13:18:46.391Z,17.33
2022-12-13T13:21:39.542Z,19.10
2022-12-13T13:24:15.181Z,19.83
2022-12-13T13:26:47.021Z,19.07
2022-12-13T13:29:31.858Z,19.87
2022-12-13T13:32:03.124Z,20.30
2022-12-13T13:34:32.784Z,19.80
2022-12-13T13:37:02.536Z,20.97
2022-12-13T13:39:59.202Z,21.33
2022-12-13T13:42:31.048Z,22.23
2022-12-13T13:45:21.603Z,22.10
2022-12-13T13:48:17.857Z,19.73
2022-12-13T13:51:31.026Z,19.80
2022-12-13T13:54:29.519Z,20.63
2022-12-13T14:01:12.234Z,21.43
2022-12-13T14:04:11.274Z,22.30
2022-12-13T14:07:09.474Z,22.70
2022-12-13T14:10:00.950Z,23.37
2022-12-13T14:13:01.762Z,24.20
2022-12-13T14:16:33.121Z,21.87
2022-12-13T14:19:38.811Z,21.33
2022-12-13T14:22:24.924Z,20.20
2022-12-13T14:25:02.914Z,23.33
2022-12-13T14:27:44.161Z,20.00
2022-12-13T14:30:27.205Z,20.07
2022-12-13T14:32:57.840Z,22.47
2022-12-13T14:35:29.726Z,23.60
2022-12-13T14:37:59.873Z,24.60
2022-12-13T14:40:31.876Z,22.33
2022-12-13T14:43:00.865Z,22.13
2022-12-13T14:45:31.319Z,22.17
2022-12-13T14:48:02.388Z,25.67
2022-12-13T14:50:34.839Z,25.20
2022-12-13T14:53:04.223Z,28.60
2022-12-13T14:55:36.267Z,27.90
2022-12-13T14:58:16.414Z,27.63
2022-12-13T15:00:45.980Z,27.70
2022-12-13T15:03:24.182Z,29.63
2022-12-13T15:05:57.459Z,27.37
2022-12-13T15:08:26.517Z,27.97
2022-12-13T15:10:56.853Z,25.43
2022-12-13T15:13:30.714Z,26.43
2022-12-13T15:16:01.881Z,27.30
2022-12-13T15:18:38.894Z,28.23
2022-12-13T15:21:22.228Z,25.93
2022-12-13T15:23:52.535Z,26.27
2022-12-13T15:26:28.731Z,27.37
2022-12-13T15:29:00.691Z,27.43
2022-12-13T15:31:29.501Z,26.20
2022-12-13T15:34:29.165Z,25.53
2022-12-13T15:37:02.660Z,27.87
2022-12-13T15:39:32.309Z,27.20
2022-12-13T15:42:01.230Z,27.83
2022-12-13T15:44:31.279Z,26.77
2022-12-13T15:47:03.598Z,35.70
2022-12-13T15:49:35.106Z,27.10
2022-12-13T15:52:08.316Z,26.27
2022-12-13T15:54:36.881Z,26.67
2022-12-13T15:57:14.963Z,24.33
2022-12-13T15:59:44.409Z,26.10
2022-12-13T16:02:18.505Z,26.40
2022-12-13T16:04:46.975Z,25.87
2022-12-13T16:07:26.221Z,27.03
2022-12-13T16:09:55.759Z,25.70
2022-12-13T16:12:30.491Z,25.27
2022-12-13T16:15:20.395Z,24.33
2022-12-13T16:18:07.722Z,23.17
2022-12-13T16:20:36.818Z,23.13
2022-12-13T16:23:08.830Z,23.17
2022-12-13T16:25:38.010Z,22.40
2022-12-13T16:28:06.697Z,24.13
2022-12-13T16:31:03.193Z,22.83
2022-12-13T16:33:32.242Z,25.53
2022-12-13T16:36:01.040Z,24.13
2022-12-13T16:38:30.823Z,20.27
2022-12-13T16:41:08.585Z,22.63
2022-12-13T16:43:43.715Z,23.80
2022-12-13T16:47:17.185Z,23.27
2022-12-13T16:49:06.722Z,22.63
2022-12-13T16:51:35.225Z,21.83
2022-12-13T16:54:04.990Z,21.97
2022-12-13T16:56:33.386Z,20.77
2022-12-13T16:59:01.824Z,23.27
2022-12-13T17:01:33.007Z,23.97
2022-12-13T17:04:07.256Z,22.53
2022-12-13T17:06:39.340Z,24.30
2022-12-13T17:09:09.392Z,25.27
2022-12-13T17:11:38.474Z,24.57
2022-12-13T17:14:07.441Z,23.33
2022-12-13T17:16:35.775Z,24.57
2022-12-13T17:19:04.342Z,25.87
2022-12-13T17:21:33.286Z,26.17
2022-12-13T17:24:03.287Z,27.30
2022-12-13T17:26:32.815Z,25.73
2022-12-13T17:29:01.404Z,26.97
2022-12-13T17:31:35.331Z,26.60
2022-12-13T17:34:05.236Z,23.50
2022-12-13T17:36:33.863Z,27.37
2022-12-13T17:39:02.117Z,25.83
2022-12-13T17:41:30.595Z,29.13
2022-12-13T17:44:01.899Z,25.67
2022-12-13T17:46:30.348Z,28.97
2022-12-13T17:48:58.838Z,25.23
2022-12-13T17:51:27.346Z,26.03
2022-12-13T17:53:55.908Z,25.70
2022-12-13T17:56:24.703Z,26.10
2022-12-13T17:58:53.312Z,24.67
2022-12-13T18:01:24.815Z,24.70
2022-12-13T18:03:55.628Z,24.73
2022-12-13T18:06:25.124Z,23.93
2022-12-13T18:08:53.682Z,25.00
2022-12-13T18:11:38.153Z,26.17
2022-12-13T18:14:07.522Z,26.20
2022-12-13T18:16:39.182Z,25.63
2022-12-13T18:19:08.632Z,27.03
2022-12-13T18:21:37.405Z,66.20
2022-12-13T18:24:06.820Z,59.50
2022-12-13T18:26:35.739Z,33.97
2022-12-13T18:29:05.121Z,32.47
2022-12-13T18:31:34.492Z,54.33
2022-12-13T18:34:05.110Z,57.90
2022-12-13T18:36:33.785Z,36.93
2022-12-13T18:39:03.148Z,33.93
2022-12-13T18:41:32.808Z,33.17
2022-12-13T18:44:02.881Z,30.40
2022-12-13T18:46:32.899Z,35.20
2022-12-13T18:49:01.603Z,30.53
2022-12-13T18:51:32.277Z,29.00
2022-12-13T18:54:00.842Z,27.03
2022-12-13T18:56:29.393Z,29.77
2022-12-13T18:58:59.480Z,36.33
2022-12-13T19:01:28.734Z,26.20
2022-12-13T19:03:57.443Z,26.10
2022-12-13T19:06:27.341Z,26.30
2022-12-13T19:08:58.058Z,26.93
2022-12-13T19:11:27.167Z,26.70
2022-12-13T19:13:55.861Z,27.17
2022-12-13T19:16:25.855Z,27.53
2022-12-13T19:18:54.476Z,27.90
2022-12-13T19:21:23.670Z,28.00
2022-12-13T19:23:57.352Z,28.50
2022-12-13T19:26:28.863Z,27.60
2022-12-13T19:28:58.367Z,27.03
2022-12-13T19:31:31.548Z,28.97
2022-12-13T19:34:02.117Z,31.67
2022-12-13T19:36:30.928Z,29.07
2022-12-13T19:38:59.430Z,29.10
2022-12-13T19:41:29.604Z,30.67
2022-12-13T19:43:58.296Z,31.57
2022-12-13T19:46:27.307Z,32.17
2022-12-13T19:48:56.701Z,30.27
2022-12-13T19:51:25.365Z,32.43
2022-12-13T19:53:54.136Z,31.90
2022-12-13T19:56:22.686Z,32.20
2022-12-13T19:58:52.461Z,33.67
2022-12-13T20:01:20.850Z,31.63
2022-12-13T20:03:49.569Z,32.97
2022-12-13T20:06:20.047Z,33.27
2022-12-13T20:08:48.315Z,34.73
2022-12-13T20:11:19.445Z,32.60
2022-12-13T20:13:48.555Z,35.30
2022-12-13T20:16:20.331Z,35.00
2022-12-13T20:18:49.521Z,34.93
2022-12-13T20:21:17.922Z,35.03
2022-12-13T20:23:49.143Z,34.77
2022-12-13T20:26:20.375Z,34.30
2022-12-13T20:28:49.114Z,35.33
2022-12-13T20:31:20.936Z,33.60
2022-12-13T20:33:50.037Z,34.13
2022-12-13T20:36:25.281Z,40.23
2022-12-13T20:38:55.386Z,43.43
2022-12-13T20:41:23.867Z,39.97
2022-12-13T20:43:53.572Z,36.10
2022-12-13T20:46:24.112Z,35.03
2022-12-13T20:48:52.791Z,36.93
2022-12-13T20:51:22.601Z,36.10
2022-12-13T20:53:51.744Z,35.37
2022-12-13T20:56:21.798Z,36.17
2022-12-13T20:58:50.483Z,36.03
2022-12-13T21:01:20.411Z,36.13
2022-12-13T21:03:50.918Z,36.13
2022-12-13T21:06:19.284Z,36.70
2022-12-13T21:08:54.612Z,36.67
2022-12-13T21:11:27.799Z,37.63
2022-12-13T21:14:03.751Z,37.83
2022-12-13T21:16:34.710Z,39.43
2022-12-13T21:19:04.748Z,36.10
2022-12-13T21:21:33.381Z,37.83
2022-12-13T21:24:03.201Z,37.67
2022-12-13T21:26:35.720Z,38.73
2022-12-13T21:29:06.705Z,37.33
2022-12-13T21:31:35.771Z,39.73
2022-12-13T21:34:06.961Z,38.97
2022-12-13T21:36:37.549Z,37.83
2022-12-13T21:39:07.744Z,38.33
2022-12-13T21:41:36.209Z,40.17
2022-12-13T21:44:04.704Z,38.97
2022-12-13T21:47:10.280Z,39.57
2022-12-13T21:49:23.115Z,40.27
2022-12-13T21:51:51.828Z,40.63
2022-12-13T21:54:20.779Z,39.43
2022-12-13T21:57:06.380Z,40.77
2022-12-13T21:59:34.913Z,42.80
2022-12-13T22:02:16.198Z,40.57
2022-12-13T22:04:47.715Z,42.20
2022-12-13T22:07:17.461Z,40.77
2022-12-13T22:09:46.623Z,41.97
2022-12-13T22:12:22.533Z,39.50
2022-12-13T22:14:51.643Z,41.47
2022-12-13T22:17:24.902Z,41.90
2022-12-13T22:19:56.828Z,42.53
2022-12-13T22:22:26.242Z,43.20
2022-12-13T22:24:54.863Z,40.47
2022-12-13T22:27:25.941Z,39.33
2022-12-13T22:29:57.189Z,39.50
2022-12-13T22:32:27.421Z,40.23
2022-12-13T22:34:57.412Z,39.70
2022-12-13T22:37:26.147Z,39.57
2022-12-13T22:39:54.648Z,38.83
2022-12-13T22:42:23.074Z,39.20
2022-12-13T22:44:51.476Z,38.20
2022-12-13T22:47:19.748Z,39.03
2022-12-13T22:49:48.738Z,36.87
2022-12-13T22:52:19.241Z,37.70
2022-12-13T22:54:47.598Z,36.57
2022-12-13T22:57:16.076Z,35.47
2022-12-13T22:59:44.806Z,35.30
2022-12-13T23:02:13.450Z,37.03
2022-12-13T23:04:41.943Z,36.57
2022-12-13T23:07:10.853Z,36.00
2022-12-13T23:09:40.448Z,37.60
2022-12-13T23:12:26.791Z,37.83
2022-12-13T23:14:55.503Z,36.10
2022-12-13T23:17:23.962Z,36.53
2022-12-13T23:19:53.498Z,35.50
2022-12-13T23:22:22.851Z,35.20
2022-12-13T23:24:53.322Z,36.67
2022-12-13T23:27:23.215Z,38.13
2022-12-13T23:29:51.629Z,36.10
2022-12-13T23:32:20.526Z,36.23
2022-12-13T23:34:49.056Z,36.90
2022-12-13T23:37:17.553Z,37.00
2022-12-13T23:39:45.966Z,36.80
2022-12-13T23:42:15.991Z,36.97
2022-12-13T23:44:44.581Z,36.83
2022-12-13T23:47:12.974Z,36.23
2022-12-13T23:49:41.491Z,36.03
2022-12-13T23:52:10.095Z,35.13
2022-12-13T23:54:38.505Z,34.97
2022-12-13T23:57:06.970Z,34.60
2022-12-13T23:59:36.701Z,35.70
